Latest Weather Observations for Hamilton Island

IDQ60801

Issued at 1:32 pm EST Sunday 25 January 2015 (issued every 30 minutes, with the page automatically refreshed every 10 minutes)

About weather observations | Map of weather stations | Latest weather observations for QLD | Other Formats
Station Details ID: 033106 Name: HAMILTON ISLAND AIRPORT Lat: -20.37 Lon: 148.95 Height: 58.66 m
Data from the previous 72 hours. | See also: Recent months at Hamilton Island
Date/Time
EST
Temp
°C
App
Temp
°C
Dew
Point
Rel
Hum
%
Delta-T
°C
Wind Press
QNH
hPa
Press
MSL
hPa
Rain
since 9 am
mm
Dir
 
Spd
km/h
Gust
km/h
Spd
kts
Gust
kts
25/01:30pm 29.7 29.5 25.0 76 3.3 NNW 35 41 19 22 1006.1 - 0.0
25/01:00pm 30.0 30.3 24.2 71 4.0 NNW 30 37 16 20 1006.4 - 0.0
25/12:30pm 31.5 32.8 24.6 67 4.8 NNW 26 35 14 19 1006.4 - 0.0
25/12:00pm 31.0 32.1 24.4 68 4.6 NNW 26 32 14 17 1006.5 1006.1 0.0
25/11:30am 31.1 33.0 25.0 70 4.3 NNW 24 32 13 17 1007.0 - 0.0
25/11:00am 30.1 31.6 24.3 71 4.0 NNW 24 33 13 18 1007.3 - 0.0
25/10:30am 29.4 30.6 23.8 72 3.9 NW 24 28 13 15 1007.7 - 0.0
25/10:00am 29.6 30.9 24.0 72 3.9 NNW 24 30 13 16 1007.9 - 0.0
25/09:30am 29.5 31.5 23.9 72 3.9 NNW 20 22 11 12 1008.0 - 0.0
25/09:00am 29.1 32.5 24.0 74 3.5 W 13 19 7 10 1008.0 1007.6 0.0
25/08:30am 28.9 28.8 23.6 73 3.7 WNW 30 39 16 21 1007.8 - 0.0
25/08:00am 28.8 27.9 23.9 75 3.4 WNW 35 48 19 26 1007.9 - 0.0
25/07:30am 28.5 27.0 24.1 77 3.1 NW 39 44 21 24 1007.8 - 0.0
25/07:00am 28.3 26.9 24.3 79 2.8 NW 39 50 21 27 1007.5 - 0.0
25/06:30am 28.1 26.7 24.3 80 2.6 NW 39 46 21 25 1007.0 - 0.0
25/06:00am 28.1 26.7 24.3 80 2.6 NW 39 48 21 26 1006.7 1006.3 0.0
25/05:30am 28.0 27.3 24.2 80 2.6 NW 35 44 19 24 1006.6 - 0.0
25/05:00am 27.9 26.4 24.1 80 2.6 NW 39 48 21 26 1006.4 - 0.0
25/04:30am 28.1 26.5 23.9 78 2.9 NW 39 50 21 27 1006.3 - 0.0
25/04:00am 28.1 25.7 23.9 78 2.9 WNW 43 52 23 28 1006.2 - 0.0
25/03:30am 28.4 26.0 23.8 76 3.2 NW 43 54 23 29 1005.7 - 0.0
25/03:00am 28.4 25.6 24.2 78 2.9 NW 46 59 25 32 1005.7 1005.3 0.0
25/02:30am 28.4 25.1 24.6 80 2.7 NW 50 65 27 35 1005.6 - 0.0
25/02:00am 28.3 27.7 24.9 82 2.4 NW 37 48 20 26 1005.5 - 0.0
25/01:30am 28.3 27.7 25.5 85 2.0 NW 39 50 21 27 1005.9 - 0.0
25/01:00am 28.2 29.0 26.0 88 1.6 NW 33 48 18 26 1006.0 - 0.0
25/12:30am 28.4 29.2 26.0 87 1.7 NW 33 48 18 26 1006.8 - 0.0
25/12:00am 28.4 27.7 26.0 87 1.7 NW 41 52 22 28 1007.1 1006.7 0.0
 
Date/Time
EST
Temp
°C
App
Temp
°C
Dew
Point
Rel
Hum
%
Delta-T
°C
Wind Press
QNH
hPa
Press
MSL
hPa
Rain
since 9 am
mm
Dir
 
Spd
km/h
Gust
km/h
Spd
kts
Gust
kts
24/11:30pm 28.5 27.4 26.3 88 1.6 NW 44 57 24 31 1007.2 - 0.0
24/11:00pm 28.4 27.8 26.2 88 1.6 NNW 41 52 22 28 1007.4 - 0.0
24/10:30pm 28.1 29.1 25.9 88 1.6 NW 32 37 17 20 1008.0 - 0.0
24/10:00pm 27.9 30.1 25.5 87 1.7 NNW 24 30 13 16 1007.7 - 0.0
24/09:30pm 27.8 30.6 25.2 86 1.8 NNW 20 26 11 14 1007.3 - 0.0
24/09:02pm 27.6 31.8 24.8 85 2.0 NNW 11 17 6 9 1007.3 - 0.0
24/09:00pm 27.6 31.8 24.8 85 2.0 NNW 11 17 6 9 1007.2 1006.8 0.0
24/08:40pm 27.5 31.9 24.5 84 2.1 NNW 9 13 5 7 1007.1 - 0.0
24/08:30pm 27.5 30.8 24.5 84 2.1 NNW 15 17 8 9 1006.9 - 0.0
24/08:00pm 27.4 29.2 24.3 83 2.2 NNW 22 28 12 15 1006.7 - 0.0
24/07:30pm 27.4 31.5 24.0 82 2.3 NW 9 24 5 13 1006.6 - 0.0
24/07:00pm 27.9 28.3 24.5 82 2.4 NW 30 39 16 21 1006.6 - 0.0
24/06:30pm 28.1 28.8 24.9 83 2.2 NW 30 37 16 20 1006.4 - 0.0
24/06:00pm 28.4 28.7 25.2 83 2.3 NNW 33 41 18 22 1005.7 1005.3 0.0
24/05:30pm 28.3 31.1 24.9 82 2.4 NNW 19 26 10 14 1005.0 - 0.0
24/05:04pm 28.2 29.6 24.8 82 2.4 NNW 26 30 14 16 1004.7 - 0.0
24/05:00pm 28.2 29.6 24.8 82 2.4 NNW 26 30 14 16 1004.7 - 0.0
24/04:32pm 27.3 28.7 24.2 83 2.1 W 24 33 13 18 1005.3 - 0.0
24/04:30pm 27.4 28.9 24.3 83 2.2 W 24 33 13 18 1005.4 - 0.0
24/04:00pm 28.6 30.0 26.0 86 1.8 NW 30 41 16 22 1005.4 - 0.0
24/03:30pm 28.8 29.1 25.8 84 2.1 NNW 35 41 19 22 1005.2 - 0.0
24/03:00pm 29.1 29.1 25.9 83 2.3 NNW 37 43 20 23 1005.1 1004.7 0.0
24/02:30pm 29.5 30.3 25.7 80 2.7 NNW 32 41 17 22 1005.1 - 0.0
24/02:00pm 30.3 30.4 26.0 78 3.1 NNW 37 44 20 24 1004.8 - 0.0
24/01:30pm 30.7 31.5 26.0 76 3.4 NNW 33 43 18 23 1005.0 - 0.0
24/01:00pm 30.5 30.9 26.0 77 3.2 NNW 35 43 19 23 1005.3 - 0.0
24/12:30pm 30.5 32.0 26.2 78 3.1 NNW 30 39 16 21 1005.7 - 0.0
24/12:00pm 30.2 30.3 26.1 79 2.9 NNW 37 46 20 25 1006.0 1005.6 0.0
24/11:30am 29.8 30.6 26.0 80 2.7 NNW 33 41 18 22 1006.1 - 0.0
24/11:00am 29.6 30.6 26.2 82 2.4 NNW 33 43 18 23 1006.5 - 0.0
24/10:30am 29.6 30.7 26.2 82 2.4 NW 32 41 17 22 1006.8 - 0.0
24/10:00am 29.3 30.4 26.1 83 2.3 NW 32 41 17 22 1006.6 - 0.0
24/09:30am 28.9 29.5 25.7 83 2.3 NNW 33 39 18 21 1006.8 - 0.0
24/09:00am 29.2 31.5 25.6 81 2.6 NW 24 33 13 18 1006.8 1006.4 0.2
24/08:30am 29.1 30.9 25.5 81 2.5 NW 26 35 14 19 1007.0 - 0.2
24/08:00am 28.8 30.1 25.2 81 2.5 NW 28 35 15 19 1006.9 - 0.2
24/07:30am 28.4 29.5 25.0 82 2.4 NW 28 39 15 21 1006.7 - 0.2
24/07:00am 28.3 30.0 25.3 84 2.1 NW 26 33 14 18 1006.4 - 0.2
24/06:30am 28.0 29.0 25.4 86 1.8 NW 30 37 16 20 1006.0 - 0.2
24/06:00am 27.8 28.2 25.4 87 1.7 NW 33 43 18 23 1005.6 1005.2 0.2
24/05:30am 27.7 27.7 25.3 87 1.7 NW 35 44 19 24 1005.1 - 0.2
24/05:00am 27.6 27.2 25.2 87 1.7 NW 37 44 20 24 1004.7 - 0.2
24/04:30am 27.7 27.2 25.1 86 1.8 NNW 37 46 20 25 1004.2 - 0.2
24/04:00am 27.5 27.3 24.3 83 2.2 NW 33 41 18 22 1004.4 - 0.2
24/03:50am 27.4 27.3 24.5 84 2.0 NNW 33 41 18 22 1004.4 - 0.2
24/03:39am 27.5 28.6 24.9 86 1.8 NW 28 37 15 20 1004.6 - 0.2
24/03:33am 27.5 28.6 24.9 86 1.8 NW 28 37 15 20 1004.7 - 0.2
24/03:30am 27.5 28.6 24.9 86 1.8 NW 28 37 15 20 1004.7 - 0.2
24/03:15am 27.5 29.0 24.9 86 1.8 NW 26 37 14 20 1004.7 - 0.2
24/03:00am 27.5 27.8 24.9 86 1.8 NNW 32 39 17 21 1004.6 1004.2 0.2
24/02:30am 27.3 29.1 24.9 87 1.7 NW 24 33 13 18 1005.0 - 0.2
24/02:00am 26.6 29.8 24.3 87 1.6 NNW 15 20 8 11 1005.2 - 0.2
24/01:30am 26.5 30.0 24.2 87 1.6 NNW 13 17 7 9 1005.4 - 0.2
24/01:00am 26.5 30.8 24.2 87 1.6 N 9 11 5 6 1005.5 - 0.2
24/12:30am 26.5 29.6 24.2 87 1.6 N 15 17 8 9 1005.7 - 0.2
24/12:00am 26.5 29.9 24.0 86 1.7 NNW 13 15 7 8 1006.0 1005.6 0.2
 
Date/Time
EST
Temp
°C
App
Temp
°C
Dew
Point
Rel
Hum
%
Delta-T
°C
Wind Press
QNH
hPa
Press
MSL
hPa
Rain
since 9 am
mm
Dir
 
Spd
km/h
Gust
km/h
Spd
kts
Gust
kts
23/11:30pm 26.5 29.9 24.0 86 1.7 N 13 15 7 8 1006.2 - 0.2
23/11:00pm 26.6 30.0 24.1 86 1.7 NNW 13 17 7 9 1006.4 - 0.2
23/10:30pm 26.4 30.1 23.9 86 1.7 NNW 11 13 6 7 1006.6 - 0.2
23/10:00pm 26.3 30.2 23.6 85 1.9 NNW 9 11 5 6 1006.6 - 0.2
23/09:30pm 26.6 30.9 23.7 84 2.0 N 7 7 4 4 1006.4 - 0.2
23/09:00pm 26.6 32.2 23.5 83 2.1 CALM 0 0 0 0 1006.2 1005.8 0.2
23/08:30pm 26.4 30.0 23.1 82 2.2 NE 9 13 5 7 1005.8 - 0.2
23/08:00pm 26.7 30.4 23.2 81 2.4 NNE 9 13 5 7 1005.6 - 0.2
23/07:30pm 26.8 30.8 23.1 80 2.5 NE 7 9 4 5 1005.0 - 0.2
23/07:00pm 27.2 30.4 23.0 78 2.9 NNE 11 15 6 8 1004.6 - 0.2
23/06:30pm 27.9 30.5 23.3 76 3.2 NW 15 19 8 10 1004.2 - 0.2
23/06:00pm 27.9 29.6 23.1 75 3.3 NW 19 22 10 12 1003.7 1003.3 0.2
23/05:30pm 29.0 33.1 23.9 74 3.5 NW 9 11 5 6 1003.2 - 0.2
23/05:00pm 29.3 33.9 24.2 74 3.5 NNW 7 11 4 6 1003.0 - 0.2
23/04:30pm 29.3 33.7 24.4 75 3.4 NW 9 15 5 8 1003.0 - 0.2
23/04:00pm 28.6 31.0 23.7 75 3.4 ENE 17 22 9 12 1003.1 - 0.2
23/03:30pm 29.5 32.9 24.6 75 3.4 NE 15 20 8 11 1003.2 - 0.2
23/03:00pm 28.4 31.5 23.5 75 3.4 ENE 13 20 7 11 1003.5 1003.1 0.2
23/02:33pm 28.8 31.9 24.1 76 3.3 E 15 19 8 10 1003.7 - 0.2
23/02:30pm 28.4 30.9 23.8 76 3.2 E 17 19 9 10 1003.7 - 0.2
23/02:00pm 28.1 31.6 23.5 76 3.2 ESE 11 15 6 8 1004.1 - 0.2
23/01:55pm 28.0 31.4 23.4 76 3.2 ESE 11 15 6 8 1004.1 - 0.2
23/01:37pm 28.0 31.0 23.4 76 3.2 ESE 13 15 7 8 1004.1 - 0.2
23/01:30pm 28.7 32.6 24.3 77 3.1 ESE 11 13 6 7 1004.2 - 0.2
23/01:02pm 28.3 32.0 23.9 77 3.0 SE 11 15 6 8 1004.3 - 0.2
23/01:00pm 28.5 32.3 24.1 77 3.1 SE 11 15 6 8 1004.3 - 0.2
23/12:49pm 28.8 32.9 24.6 78 2.9 SE 11 13 6 7 1004.6 - 0.2
23/12:30pm 28.1 31.8 23.9 78 2.9 ESE 11 13 6 7 1004.7 - 0.2
23/12:00pm 28.1 31.5 24.1 79 2.8 SSE 13 17 7 9 1004.9 1004.5 0.2
23/11:30am 27.9 31.1 24.3 81 2.5 ESE 15 17 8 9 1005.2 - 0.2
23/11:00am 28.1 31.6 24.9 83 2.2 ESE 15 19 8 10 1005.6 - 0.2
23/10:30am 27.5 31.6 24.5 84 2.1 ESE 11 13 6 7 1005.8 - 0.2
23/10:00am 27.1 32.0 24.6 86 1.7 SE 7 11 4 6 1005.8 - 0.0
23/09:30am 26.4 31.0 24.2 88 1.5 SE 7 11 4 6 1005.6 - 0.0
23/09:00am 25.5 29.1 23.7 90 1.2 SSE 11 15 6 8 1005.4 1005.0 97.2
23/08:30am 25.4 29.9 23.6 90 1.2 E 6 9 3 5 1006.2 - 97.2
23/08:00am 25.1 30.7 23.5 91 1.1 CALM 0 0 0 0 1006.0 - 97.2
23/07:30am 24.7 29.6 23.1 91 1.1 S 2 7 1 4 1006.1 - 97.2
23/07:00am 24.5 28.4 22.9 91 1.1 WSW 7 9 4 5 1005.8 - 97.2
23/06:30am 24.2 28.0 22.8 92 0.9 SW 7 9 4 5 1005.5 - 97.2
23/06:00am 24.1 27.5 22.7 92 0.9 SSW 9 11 5 6 1004.9 1004.5 97.2
23/05:30am 23.9 28.9 22.5 92 0.9 CALM 0 4 0 2 1004.4 - 97.2
23/05:07am 23.7 28.6 22.3 92 0.9 CALM 0 6 0 3 1004.3 - 97.2
23/05:00am 23.7 27.4 22.3 92 0.9 WSW 6 11 3 6 1004.5 - 97.2
23/04:30am 23.8 27.0 22.4 92 0.9 W 9 20 5 11 1004.9 - 97.0
23/04:00am 24.0 27.0 22.6 92 0.9 SW 11 17 6 9 1004.4 - 97.0
23/03:30am 23.7 26.5 22.3 92 0.9 S 11 17 6 9 1003.8 - 97.0
23/03:00am 23.6 26.0 22.2 92 0.9 S 13 19 7 10 1003.9 1003.5 97.0
23/02:56am 23.7 25.7 22.3 92 0.9 S 15 19 8 10 1003.8 - 97.0
23/02:51am 23.6 25.6 22.2 92 0.9 S 15 20 8 11 1003.7 - 97.0
23/02:30am 23.6 26.7 22.2 92 0.9 SSW 9 19 5 10 1003.8 - 97.0
23/02:24am 23.7 26.5 22.3 92 0.9 SSW 11 19 6 10 1003.7 - 97.0
23/02:00am 23.4 26.0 22.0 92 0.9 S 11 15 6 8 1003.3 - 97.0
23/01:30am 23.0 25.4 21.6 92 0.9 W 11 13 6 7 1004.6 - 96.6
23/01:00am 22.9 22.0 21.5 92 0.9 NE 28 39 15 21 1004.6 - 96.6
23/12:33am 22.8 24.0 21.4 92 0.9 NE 17 20 9 11 1004.8 - 95.0
23/12:30am 22.8 23.9 21.3 91 1.0 ENE 17 20 9 11 1005.1 - 94.8
23/12:06am 22.9 23.7 21.4 91 1.0 NE 19 26 10 14 1006.2 - 92.0
23/12:04am 22.7 23.8 21.2 91 1.0 NE 17 26 9 14 1006.4 - 91.8
23/12:00am 22.6 23.9 20.9 90 1.1 ENE 15 22 8 12 1006.6 1006.2 91.4
 
Date/Time
EST
Temp
°C
App
Temp
°C
Dew
Point
Rel
Hum
%
Delta-T
°C
Wind Press
QNH
hPa
Press
MSL
hPa
Rain
since 9 am
mm
Dir
 
Spd
km/h
Gust
km/h
Spd
kts
Gust
kts
22/11:30pm 22.7 26.8 20.8 89 1.2 CALM 0 0 0 0 1006.8 - 87.8
22/11:01pm 23.1 26.1 21.2 89 1.2 E 7 11 4 6 1006.7 - 85.4
22/11:00pm 23.1 26.1 21.2 89 1.2 E 7 11 4 6 1006.7 - 85.4
22/10:30pm 23.4 26.2 21.5 89 1.3 S 9 11 5 6 1007.1 - 83.6
22/10:00pm 23.6 25.3 21.7 89 1.3 SSE 15 24 8 13 1006.6 - 82.0
22/09:30pm 23.5 24.9 21.8 90 1.1 S 17 20 9 11 1006.9 - 81.6
22/09:00pm 23.2 24.9 21.6 91 1.1 S 15 17 8 9 1006.2 1005.8 81.6
22/08:30pm 23.0 25.0 21.6 92 0.9 SSE 13 17 7 9 1005.1 - 81.4
22/08:00pm 22.9 24.5 21.5 92 0.9 ESE 15 20 8 11 1005.0 - 81.4
22/07:30pm 22.7 23.0 21.5 93 0.8 ESE 22 30 12 16 1005.0 - 81.4
22/07:00pm 22.8 22.0 21.6 93 0.8 SE 28 32 15 17 1005.3 - 79.8
22/06:38pm 22.2 22.1 20.8 92 0.9 S 22 28 12 15 1005.8 - 78.4
22/06:30pm 22.2 22.1 20.8 92 0.9 S 22 32 12 17 1005.8 - 78.0
22/06:22pm 22.3 21.9 20.9 92 0.9 S 24 33 13 18 1005.6 - 77.6
22/06:00pm 22.1 20.8 20.7 92 0.9 S 28 39 15 21 1005.5 1005.1 76.2
22/05:30pm 22.3 20.4 20.9 92 0.9 S 32 43 17 23 1004.6 - 74.8
22/05:09pm 22.0 20.0 20.8 93 0.8 S 32 44 17 24 1004.4 - 74.8
22/05:00pm 21.8 18.4 20.6 93 0.8 S 39 48 21 26 1004.4 - 74.4
22/04:58pm 21.8 18.8 20.6 93 0.8 S 37 46 20 25 1004.4 - 74.2
22/04:30pm 21.7 19.4 20.5 93 0.8 S 33 48 18 26 1004.6 - 71.4
22/04:00pm 21.4 17.8 20.2 93 0.8 S 39 57 21 31 1004.4 - 68.8
22/03:57pm 21.4 17.8 20.2 93 0.8 S 39 57 21 31 1004.5 - 68.6
22/03:39pm 21.2 17.1 20.0 93 0.8 S 41 56 22 30 1004.4 - 66.8
22/03:38pm 21.2 17.5 20.0 93 0.8 S 39 56 21 30 1004.5 - 66.8
22/03:35pm 21.6 18.9 20.4 93 0.8 S 35 54 19 29 1004.5 - 66.4
22/03:30pm 21.8 19.2 20.6 93 0.8 S 35 50 19 27 1004.5 - 66.2
22/03:26pm 21.6 17.7 20.4 93 0.8 S 41 50 22 27 1004.5 - 65.8
22/03:19pm 21.5 18.0 20.3 93 0.8 S 39 54 21 29 1004.3 - 65.2
22/03:08pm 21.4 18.6 20.2 93 0.8 S 35 50 19 27 1004.2 - 64.4
22/03:00pm 21.6 18.8 20.2 92 0.9 S 35 50 19 27 1004.6 1004.2 63.0
22/02:30pm 21.8 17.5 20.4 92 0.9 S 43 54 23 29 1004.2 - 61.8
22/02:00pm 22.4 20.0 21.0 92 0.9 S 35 44 19 24 1004.5 - 60.2
22/01:57pm 22.6 19.8 21.1 91 1.0 S 37 44 20 24 1004.5 - 60.2
22/01:45pm 24.1 26.0 22.7 92 0.9 S 17 22 9 12 1004.6 - 59.8

Other Formats:

Comma delimited format used in spreadsheet applications
http://www.bom.gov.au/fwo/IDQ60801/IDQ60801.94368.axf

JavaScript Object Notation format (JSON) in row-major order
http://www.bom.gov.au/fwo/IDQ60801/IDQ60801.94368.json